createdAt,value
2018-03-02T00:00:21.557Z,0
2018-03-02T00:01:23.200Z,0
2018-03-02T00:02:24.836Z,0
2018-03-02T00:03:26.481Z,0
2018-03-02T00:04:28.175Z,0
2018-03-02T00:05:29.829Z,0
2018-03-02T00:06:31.478Z,0
2018-03-02T00:07:33.118Z,0
2018-03-02T00:08:34.765Z,0
2018-03-02T00:09:36.416Z,0
2018-03-02T00:10:38.056Z,0
2018-03-02T00:11:39.698Z,0
2018-03-02T00:12:41.344Z,0
2018-03-02T00:13:42.991Z,0
2018-03-02T00:14:44.630Z,0
2018-03-02T00:15:46.285Z,0
2018-03-02T00:16:47.929Z,0
2018-03-02T00:17:49.577Z,0
2018-03-02T00:18:51.224Z,0
2018-03-02T00:19:52.874Z,0
2018-03-02T00:20:54.512Z,0
2018-03-02T00:21:56.151Z,0
2018-03-02T00:22:57.805Z,0
2018-03-02T00:23:59.444Z,0
2018-03-02T00:25:01.090Z,0
2018-03-02T00:26:02.728Z,0
2018-03-02T00:27:04.386Z,0
2018-03-02T00:28:06.016Z,0
2018-03-02T00:29:07.657Z,0
2018-03-02T00:30:09.303Z,0
2018-03-02T00:31:10.947Z,0
2018-03-02T00:32:12.595Z,0
2018-03-02T00:33:14.236Z,0
2018-03-02T00:34:15.885Z,0
2018-03-02T00:35:17.528Z,0
2018-03-02T00:36:19.180Z,0
2018-03-02T00:37:20.818Z,0
2018-03-02T00:38:22.486Z,0
2018-03-02T00:39:24.114Z,0
2018-03-02T00:40:25.754Z,0
2018-03-02T00:41:27.405Z,0
2018-03-02T00:42:29.047Z,0
2018-03-02T00:43:30.697Z,0
2018-03-02T00:44:32.348Z,0
2018-03-02T00:45:33.985Z,0
2018-03-02T00:46:35.628Z,0
2018-03-02T00:47:37.271Z,0
2018-03-02T00:48:38.925Z,0
2018-03-02T00:49:40.568Z,0
2018-03-02T00:50:42.211Z,0
2018-03-02T00:51:43.861Z,0
2018-03-02T00:52:45.498Z,0
2018-03-02T00:53:47.142Z,0
2018-03-02T00:54:48.784Z,0
2018-03-02T00:55:50.440Z,0
2018-03-02T00:56:52.074Z,0
2018-03-02T00:57:53.740Z,0
2018-03-02T00:58:55.388Z,0
2018-03-02T00:59:57.032Z,0
2018-03-02T01:00:58.672Z,0
2018-03-02T01:02:00.316Z,0
2018-03-02T01:03:01.961Z,0
2018-03-02T01:04:03.608Z,0
2018-03-02T01:05:05.243Z,0
2018-03-02T01:06:06.888Z,0
2018-03-02T01:07:08.530Z,0
2018-03-02T01:08:10.179Z,0
2018-03-02T01:09:11.816Z,0
2018-03-02T01:10:13.463Z,0
2018-03-02T01:11:15.124Z,0
2018-03-02T01:12:16.775Z,0
2018-03-02T01:13:18.416Z,0
2018-03-02T01:14:20.061Z,0
2018-03-02T01:15:21.708Z,0
2018-03-02T01:16:23.352Z,0
2018-03-02T01:17:25.015Z,0
2018-03-02T01:18:26.659Z,0
2018-03-02T01:19:28.300Z,0
2018-03-02T01:20:29.932Z,0
2018-03-02T01:21:31.573Z,0
2018-03-02T01:22:33.215Z,0
2018-03-02T01:23:34.865Z,0
2018-03-02T01:24:36.500Z,0
2018-03-02T01:25:38.147Z,0
2018-03-02T01:26:39.810Z,0
2018-03-02T01:27:41.455Z,0
2018-03-02T01:28:43.100Z,0
2018-03-02T01:29:44.746Z,0
2018-03-02T01:30:46.397Z,0
2018-03-02T01:31:48.040Z,0
2018-03-02T01:32:49.682Z,0
2018-03-02T01:33:51.320Z,0
2018-03-02T01:34:52.962Z,0
2018-03-02T01:35:54.607Z,0
2018-03-02T01:36:56.250Z,0
2018-03-02T01:37:57.897Z,0
2018-03-02T01:38:59.545Z,0
2018-03-02T01:40:01.200Z,0
2018-03-02T01:41:02.835Z,0
2018-03-02T01:42:04.494Z,0
2018-03-02T01:43:06.139Z,0
2018-03-02T01:44:07.792Z,0
2018-03-02T01:45:09.428Z,0
2018-03-02T01:46:11.074Z,0
2018-03-02T01:47:12.712Z,0
2018-03-02T01:48:14.356Z,0
2018-03-02T01:49:16.004Z,0
2018-03-02T01:50:17.651Z,0
2018-03-02T01:51:19.302Z,0
2018-03-02T01:52:20.947Z,0
2018-03-02T01:53:22.604Z,0
2018-03-02T01:54:24.250Z,0
2018-03-02T01:55:25.897Z,0
2018-03-02T01:56:27.553Z,0
2018-03-02T01:57:29.205Z,0
2018-03-02T01:58:30.847Z,0
2018-03-02T01:59:32.499Z,0
2018-03-02T02:00:34.140Z,0
2018-03-02T02:01:35.788Z,0
2018-03-02T02:02:37.428Z,0
2018-03-02T02:03:39.070Z,0
2018-03-02T02:04:40.718Z,0
2018-03-02T02:05:42.366Z,0
2018-03-02T02:06:44.056Z,0
2018-03-02T02:07:45.697Z,0
2018-03-02T02:08:47.342Z,0
2018-03-02T02:09:48.981Z,0
2018-03-02T02:10:50.626Z,0
2018-03-02T02:11:52.268Z,0
2018-03-02T02:12:53.915Z,0
2018-03-02T02:13:55.558Z,0
2018-03-02T02:14:57.201Z,0
2018-03-02T02:15:58.849Z,0
2018-03-02T02:17:00.505Z,0
2018-03-02T02:18:02.157Z,0
2018-03-02T02:19:03.804Z,0
2018-03-02T02:20:05.448Z,0
2018-03-02T02:21:07.095Z,0
2018-03-02T02:22:08.742Z,0
2018-03-02T02:23:10.388Z,0
2018-03-02T02:24:12.033Z,0
2018-03-02T02:25:13.672Z,0
2018-03-02T02:26:15.324Z,0
2018-03-02T02:27:16.967Z,0
2018-03-02T02:28:18.611Z,0
2018-03-02T02:29:20.247Z,0
2018-03-02T02:30:21.903Z,0
2018-03-02T02:31:23.545Z,0
2018-03-02T02:32:25.195Z,0
2018-03-02T02:33:26.827Z,0
2018-03-02T02:34:28.528Z,0
2018-03-02T02:35:30.170Z,0
2018-03-02T02:36:31.816Z,0
2018-03-02T02:37:33.499Z,0
2018-03-02T02:38:35.141Z,0
2018-03-02T02:39:37.304Z,0
2018-03-02T02:40:38.948Z,0
2018-03-02T02:41:40.609Z,0
2018-03-02T02:42:42.251Z,0
2018-03-02T02:43:43.904Z,0
2018-03-02T02:44:45.558Z,0
2018-03-02T02:45:47.202Z,0
2018-03-02T02:46:48.852Z,0
2018-03-02T02:47:50.488Z,0
2018-03-02T02:48:52.128Z,0
2018-03-02T02:49:53.769Z,0
2018-03-02T02:50:55.421Z,0
2018-03-02T02:51:57.107Z,0
2018-03-02T02:52:58.742Z,0
2018-03-02T02:54:00.387Z,0
2018-03-02T02:55:02.047Z,0
2018-03-02T03:01:29.060Z,0
2018-03-02T03:02:30.655Z,0
2018-03-02T03:03:32.308Z,0
2018-03-02T03:04:33.942Z,0
2018-03-02T03:05:35.585Z,0
2018-03-02T03:06:37.227Z,0
2018-03-02T03:07:38.865Z,0
2018-03-02T03:08:40.506Z,0
2018-03-02T03:09:42.154Z,0
2018-03-02T03:10:43.791Z,0
2018-03-02T03:11:45.433Z,0
2018-03-02T03:12:47.074Z,0
2018-03-02T03:13:48.769Z,0
2018-03-02T03:14:50.411Z,0
2018-03-02T03:15:52.058Z,0
2018-03-02T03:16:53.695Z,0
2018-03-02T03:17:55.336Z,0
2018-03-02T03:18:56.976Z,0
2018-03-02T03:19:58.626Z,0
2018-03-02T03:21:00.270Z,0
2018-03-02T03:22:01.924Z,0
2018-03-02T03:23:03.578Z,0
2018-03-02T03:24:05.218Z,0
2018-03-02T03:25:06.870Z,0
2018-03-02T03:26:08.509Z,0
2018-03-02T03:27:10.158Z,0
2018-03-02T03:28:11.799Z,0
2018-03-02T03:29:13.443Z,0
2018-03-02T03:30:15.094Z,0
2018-03-02T03:31:16.734Z,0
2018-03-02T03:32:18.376Z,0
2018-03-02T03:33:20.023Z,0
2018-03-02T03:34:21.673Z,0
2018-03-02T03:35:23.324Z,0
2018-03-02T03:36:24.971Z,0
2018-03-02T03:37:26.628Z,0
2018-03-02T03:38:28.276Z,0
2018-03-02T03:39:29.918Z,0
2018-03-02T03:40:31.563Z,0
2018-03-02T03:41:33.212Z,0
2018-03-02T03:42:34.856Z,0
2018-03-02T03:43:36.541Z,0
2018-03-02T03:44:38.158Z,0
2018-03-02T03:45:39.796Z,0
2018-03-02T03:46:41.452Z,0
2018-03-02T03:47:43.093Z,0
2018-03-02T03:48:44.740Z,0
2018-03-02T03:49:46.388Z,0
2018-03-02T03:50:48.037Z,0
2018-03-02T03:51:49.683Z,0
2018-03-02T03:52:51.332Z,0
2018-03-02T03:53:52.976Z,0
2018-03-02T03:54:54.620Z,0
2018-03-02T03:55:56.268Z,0
2018-03-02T03:56:57.903Z,0
2018-03-02T03:57:59.556Z,0
2018-03-02T03:59:01.209Z,0
2018-03-02T04:00:02.847Z,0
2018-03-02T04:01:04.499Z,0
2018-03-02T04:02:06.148Z,0
2018-03-02T04:03:07.792Z,0
2018-03-02T04:04:09.436Z,0
2018-03-02T04:05:11.085Z,0
2018-03-02T04:06:12.719Z,0
2018-03-02T04:07:14.373Z,0
2018-03-02T04:08:16.018Z,0
2018-03-02T04:09:17.662Z,0
2018-03-02T04:10:19.307Z,0
2018-03-02T04:11:20.953Z,0
2018-03-02T04:12:22.603Z,0
2018-03-02T04:13:24.240Z,0
2018-03-02T04:14:25.884Z,0
2018-03-02T04:15:27.524Z,0
2018-03-02T04:16:29.177Z,0
2018-03-02T04:17:30.825Z,0
2018-03-02T04:18:32.475Z,0
2018-03-02T04:19:34.125Z,0
2018-03-02T04:20:35.775Z,0
2018-03-02T04:21:37.421Z,0
2018-03-02T04:22:39.064Z,0
2018-03-02T04:23:40.708Z,0
2018-03-02T04:24:42.360Z,0
2018-03-02T04:25:44.016Z,0
2018-03-02T04:26:45.665Z,0
2018-03-02T04:27:47.304Z,0
2018-03-02T04:28:48.949Z,0
2018-03-02T04:29:50.594Z,0
2018-03-02T04:30:52.239Z,0
2018-03-02T04:31:53.885Z,0
2018-03-02T04:32:55.523Z,0
2018-03-02T04:33:57.171Z,0
2018-03-02T04:34:58.822Z,0
2018-03-02T04:36:00.464Z,0
2018-03-02T04:37:02.113Z,0
2018-03-02T04:38:03.755Z,0
2018-03-02T04:39:05.393Z,0
2018-03-02T04:40:07.036Z,0
2018-03-02T04:41:08.684Z,0
2018-03-02T04:42:10.331Z,0
2018-03-02T04:43:11.974Z,0
2018-03-02T04:44:13.627Z,0
2018-03-02T04:45:15.269Z,0
2018-03-02T04:46:16.921Z,0
2018-03-02T04:47:18.575Z,0
2018-03-02T04:48:20.220Z,0
2018-03-02T04:49:21.865Z,0
2018-03-02T04:50:23.552Z,0
2018-03-02T04:51:25.199Z,0
2018-03-02T04:52:26.839Z,0
2018-03-02T04:53:28.493Z,0
2018-03-02T04:54:30.133Z,0
2018-03-02T04:55:31.777Z,0
2018-03-02T04:56:33.442Z,0
2018-03-02T04:57:35.072Z,0
2018-03-02T04:58:36.718Z,0
2018-03-02T04:59:38.366Z,0
2018-03-02T05:00:40.015Z,0
2018-03-02T05:01:41.668Z,0
2018-03-02T05:02:43.321Z,0
2018-03-02T05:03:44.961Z,0
2018-03-02T05:04:46.605Z,0
2018-03-02T05:05:48.244Z,0
2018-03-02T05:06:49.886Z,0
2018-03-02T05:07:51.536Z,0
2018-03-02T05:08:53.179Z,0
2018-03-02T05:09:54.830Z,0
2018-03-02T05:10:56.474Z,0
2018-03-02T05:11:58.120Z,0
2018-03-02T05:12:59.772Z,0
2018-03-02T05:14:01.418Z,0
2018-03-02T05:15:03.052Z,0
2018-03-02T05:16:04.697Z,0
2018-03-02T05:17:06.334Z,0
2018-03-02T05:18:07.986Z,0
2018-03-02T05:19:09.627Z,0
2018-03-02T05:20:11.274Z,0
2018-03-02T05:21:12.915Z,0
2018-03-02T05:22:14.576Z,0
2018-03-02T05:23:16.209Z,0
2018-03-02T05:24:17.864Z,0
2018-03-02T05:25:19.505Z,0
2018-03-02T05:26:21.143Z,0
2018-03-02T05:27:22.786Z,0
2018-03-02T05:28:24.432Z,0
2018-03-02T05:29:26.079Z,0
2018-03-02T05:30:27.737Z,0
2018-03-02T05:31:29.387Z,0
2018-03-02T05:32:31.028Z,0
2018-03-02T05:33:32.681Z,0
2018-03-02T05:34:34.318Z,0
2018-03-02T05:35:35.965Z,4
2018-03-02T05:36:37.633Z,4
2018-03-02T05:37:39.251Z,0
2018-03-02T05:38:40.910Z,4
2018-03-02T05:39:42.548Z,4
2018-03-02T05:40:44.194Z,4
2018-03-02T05:41:45.840Z,8
2018-03-02T05:42:47.484Z,4
2018-03-02T05:43:49.124Z,4
2018-03-02T05:44:50.776Z,12
2018-03-02T05:45:52.457Z,12
2018-03-02T05:46:54.078Z,12
2018-03-02T05:47:55.715Z,16
2018-03-02T05:48:57.357Z,16
2018-03-02T05:49:59.011Z,24
2018-03-02T05:51:00.663Z,24
2018-03-02T05:52:02.319Z,32
2018-03-02T05:53:03.971Z,40
2018-03-02T05:54:05.600Z,48
2018-03-02T05:55:07.251Z,52
2018-03-02T05:56:08.901Z,64
2018-03-02T05:57:10.555Z,72
2018-03-02T05:58:12.196Z,88
2018-03-02T05:59:13.848Z,100
2018-03-02T06:00:16.719Z,120
2018-03-02T06:01:18.377Z,136
2018-03-02T06:02:20.109Z,156
2018-03-02T06:03:21.748Z,172
2018-03-02T06:04:23.409Z,192
2018-03-02T06:05:25.071Z,204
2018-03-02T06:06:26.713Z,224
2018-03-02T06:07:28.380Z,248
2018-03-02T06:08:30.039Z,268
2018-03-02T06:09:31.682Z,296
2018-03-02T06:10:33.327Z,328
2018-03-02T06:11:34.983Z,360
2018-03-02T06:12:36.625Z,388
2018-03-02T06:13:38.273Z,420
2018-03-02T06:14:39.938Z,456
2018-03-02T06:15:41.582Z,488
2018-03-02T06:16:43.228Z,528
2018-03-02T06:17:44.875Z,572
2018-03-02T06:18:46.526Z,628
2018-03-02T06:19:48.197Z,684
2018-03-02T06:20:49.841Z,744
2018-03-02T06:21:51.504Z,808
2018-03-02T06:22:53.142Z,868
2018-03-02T06:23:54.784Z,928
2018-03-02T06:24:56.448Z,992
2018-03-02T06:25:58.083Z,1068
2018-03-02T06:26:59.736Z,1140
2018-03-02T06:28:01.393Z,1212
2018-03-02T06:29:03.046Z,1280
2018-03-02T06:30:04.699Z,1348
2018-03-02T06:31:06.353Z,1424
2018-03-02T06:32:07.994Z,1496
2018-03-02T06:33:09.649Z,1572
2018-03-02T06:34:11.338Z,1652
2018-03-02T06:35:12.983Z,1732
2018-03-02T06:36:14.640Z,1812
2018-03-02T06:37:16.295Z,1896
2018-03-02T06:38:17.934Z,1980
2018-03-02T06:39:19.580Z,2076
2018-03-02T06:40:21.238Z,2192
2018-03-02T06:41:22.876Z,2320
2018-03-02T06:42:24.535Z,2444
2018-03-02T06:43:26.182Z,2568
2018-03-02T06:44:27.824Z,2704
2018-03-02T06:45:29.476Z,2828
2018-03-02T06:46:31.134Z,2940
2018-03-02T06:47:32.777Z,3064
2018-03-02T06:48:34.431Z,3216
2018-03-02T06:49:36.086Z,3372
2018-03-02T06:50:37.738Z,3524
2018-03-02T06:51:39.391Z,3676
2018-03-02T06:52:41.038Z,3804
2018-03-02T06:53:42.679Z,3900
2018-03-02T06:54:44.337Z,3988
2018-03-02T07:00:56.132Z,4804
2018-03-02T07:01:57.783Z,4968
2018-03-02T07:02:59.433Z,5140
2018-03-02T07:04:01.088Z,5324
2018-03-02T07:05:02.740Z,5576
2018-03-02T07:06:04.389Z,5820
2018-03-02T07:07:06.085Z,5960
2018-03-02T07:08:07.687Z,6208
2018-03-02T07:09:09.339Z,6520
2018-03-02T07:10:11.008Z,6856
2018-03-02T07:11:12.655Z,7408
2018-03-02T07:12:14.310Z,8024
2018-03-02T07:13:15.964Z,8272
2018-03-02T07:14:17.611Z,8028
2018-03-02T07:15:19.283Z,7952
2018-03-02T07:16:20.926Z,7924
2018-03-02T07:17:22.589Z,7908
2018-03-02T07:18:24.232Z,8068
2018-03-02T07:19:25.884Z,8200
2018-03-02T07:20:27.545Z,8268
2018-03-02T07:21:29.262Z,8216
2018-03-02T07:22:30.858Z,8168
2018-03-02T07:23:32.515Z,8336
2018-03-02T07:24:34.157Z,8700
2018-03-02T07:25:35.821Z,9080
2018-03-02T07:26:37.477Z,9444
2018-03-02T07:27:39.139Z,9556
2018-03-02T07:28:40.802Z,9736
2018-03-02T07:29:42.453Z,9864
2018-03-02T07:30:44.105Z,10028
2018-03-02T07:31:45.756Z,10424
2018-03-02T07:32:47.408Z,11248
2018-03-02T07:33:49.060Z,12332
2018-03-02T07:34:50.721Z,14020
2018-03-02T07:35:52.372Z,14788
2018-03-02T07:36:54.029Z,15136
2018-03-02T07:37:55.681Z,16448
2018-03-02T07:38:57.347Z,19264
2018-03-02T07:39:58.990Z,19552
2018-03-02T07:41:00.651Z,18496
2018-03-02T07:42:02.301Z,19392
2018-03-02T07:43:03.970Z,21152
2018-03-02T07:44:05.622Z,21376
2018-03-02T07:45:07.278Z,27200
2018-03-02T07:46:08.941Z,35072
2018-03-02T07:47:10.591Z,33280
2018-03-02T07:48:12.245Z,30144
2018-03-02T07:49:13.900Z,25824
2018-03-02T07:50:15.563Z,23936
2018-03-02T07:51:17.246Z,24160
2018-03-02T07:52:18.899Z,23296
2018-03-02T07:53:20.565Z,22272
2018-03-02T07:54:22.221Z,24992
2018-03-02T07:55:23.868Z,23808
2018-03-02T07:56:25.529Z,23232
2018-03-02T07:57:27.231Z,22400
2018-03-02T07:58:28.850Z,20736
2018-03-02T07:59:30.516Z,19680
2018-03-02T08:00:32.166Z,18208
2018-03-02T08:01:33.827Z,17088
2018-03-02T08:02:35.497Z,18400
2018-03-02T08:03:37.151Z,18720
2018-03-02T08:04:38.824Z,19392
2018-03-02T08:05:40.489Z,18624
2018-03-02T08:06:42.154Z,18496
2018-03-02T08:07:43.812Z,19072
2018-03-02T08:08:45.467Z,18688
2018-03-02T08:09:47.126Z,19104
2018-03-02T08:10:48.777Z,18816
2018-03-02T08:11:50.441Z,19008
2018-03-02T08:12:52.103Z,19488
2018-03-02T08:13:53.757Z,18848
2018-03-02T08:14:55.426Z,18912
2018-03-02T08:15:57.085Z,17920
2018-03-02T08:16:58.730Z,17664
2018-03-02T08:18:00.388Z,18592
2018-03-02T08:19:02.063Z,19968
2018-03-02T08:20:03.709Z,20832
2018-03-02T08:21:05.363Z,22816
2018-03-02T08:22:07.029Z,22464
2018-03-02T08:23:08.686Z,23200
2018-03-02T08:24:10.352Z,23616
2018-03-02T08:25:12.017Z,24320
2018-03-02T08:26:13.679Z,24896
2018-03-02T08:27:15.342Z,24800
2018-03-02T08:28:17.002Z,25664
2018-03-02T08:29:18.663Z,24832
2018-03-02T08:30:20.315Z,25728
2018-03-02T08:31:21.974Z,26528
2018-03-02T08:32:23.627Z,27232
2018-03-02T08:33:25.291Z,24704
2018-03-02T08:34:26.947Z,24192
2018-03-02T08:35:28.622Z,24096
2018-03-02T08:36:30.270Z,25312
2018-03-02T08:37:31.928Z,29152
2018-03-02T08:38:33.652Z,30144
2018-03-02T08:39:35.317Z,32384
2018-03-02T08:40:36.978Z,33920
2018-03-02T08:41:38.638Z,37312
2018-03-02T08:42:40.301Z,41376
2018-03-02T08:43:41.969Z,41376
2018-03-02T08:44:43.617Z,41088
2018-03-02T08:45:45.285Z,41664
2018-03-02T08:46:46.965Z,43552
2018-03-02T08:47:48.677Z,45632
2018-03-02T08:48:50.342Z,47744
2018-03-02T08:49:52.054Z,52896
2018-03-02T08:50:53.666Z,61440
2018-03-02T08:51:55.319Z,64672
2018-03-02T08:52:56.970Z,65056
2018-03-02T08:53:58.645Z,64544
2018-03-02T08:55:00.307Z,68736
2018-03-02T08:56:01.973Z,69344
2018-03-02T08:57:03.628Z,58304
2018-03-02T08:58:05.287Z,45504
2018-03-02T08:59:06.951Z,38816
2018-03-02T09:00:08.632Z,35872
2018-03-02T09:01:10.290Z,34720
2018-03-02T09:02:11.959Z,34432
2018-03-02T09:03:13.613Z,33312
2018-03-02T09:04:15.275Z,32224
2018-03-02T09:05:16.943Z,31712
2018-03-02T09:06:18.601Z,31264
2018-03-02T09:07:20.258Z,31264
2018-03-02T09:08:21.925Z,31040
2018-03-02T09:09:23.583Z,30912
2018-03-02T09:10:25.240Z,31424
2018-03-02T09:11:26.899Z,30976
2018-03-02T09:12:28.559Z,32992
2018-03-02T09:13:30.221Z,36000
2018-03-02T09:14:31.888Z,40032
2018-03-02T09:15:33.560Z,47616
2018-03-02T09:16:35.234Z,50176
2018-03-02T09:17:36.884Z,51296
2018-03-02T09:18:38.546Z,52992
2018-03-02T09:19:40.211Z,53664
2018-03-02T09:20:41.873Z,51904
2018-03-02T09:21:43.532Z,46176
2018-03-02T09:22:45.188Z,44608
2018-03-02T09:23:46.867Z,43872
2018-03-02T09:24:48.513Z,45344
2018-03-02T09:25:50.187Z,46176
2018-03-02T09:26:51.842Z,46496
2018-03-02T09:27:53.505Z,40192
2018-03-02T09:28:55.171Z,39968
2018-03-02T09:29:56.840Z,41632
2018-03-02T09:30:58.547Z,42272
2018-03-02T09:32:00.183Z,46368
2018-03-02T09:33:01.846Z,51776
2018-03-02T09:34:03.505Z,52672
2018-03-02T09:35:05.168Z,59008
2018-03-02T09:36:06.825Z,63968
2018-03-02T09:37:08.519Z,62272
2018-03-02T09:38:10.172Z,61184
2018-03-02T09:39:11.840Z,63488
2018-03-02T09:40:13.496Z,64928
2018-03-02T09:41:15.162Z,65440
2018-03-02T09:42:16.823Z,64896
2018-03-02T09:43:18.482Z,68032
2018-03-02T09:44:20.182Z,69760
2018-03-02T09:45:21.846Z,70240
2018-03-02T09:46:23.518Z,71680
2018-03-02T09:47:25.183Z,68960
2018-03-02T09:48:26.845Z,65472
2018-03-02T09:49:28.511Z,65632
2018-03-02T09:50:30.163Z,60416
2018-03-02T09:51:31.831Z,60224
2018-03-02T09:52:33.498Z,56576
2018-03-02T09:53:35.810Z,52160
2018-03-02T09:54:37.485Z,41344
2018-03-02T09:55:39.142Z,41152
2018-03-02T09:56:40.799Z,49344
2018-03-02T09:57:42.462Z,48960
2018-03-02T09:58:44.129Z,57280
2018-03-02T09:59:45.801Z,49120
2018-03-02T10:00:47.473Z,50912
2018-03-02T10:01:49.124Z,57280
2018-03-02T10:02:50.789Z,52320
2018-03-02T10:03:52.455Z,58336
2018-03-02T10:04:54.108Z,51584
2018-03-02T10:05:55.768Z,48000
2018-03-02T10:06:57.432Z,46976
2018-03-02T10:07:59.105Z,61600
2018-03-02T10:09:00.767Z,69152
2018-03-02T10:10:02.425Z,55296
2018-03-02T10:11:04.088Z,47232
2018-03-02T10:12:05.751Z,44896
2018-03-02T10:13:07.428Z,50176
2018-03-02T10:14:09.094Z,49312
2018-03-02T10:15:10.765Z,57728
2018-03-02T10:16:12.426Z,54592
2018-03-02T10:17:14.087Z,54560
2018-03-02T10:18:15.755Z,54496
2018-03-02T10:19:17.419Z,42336
2018-03-02T10:20:19.081Z,41408
2018-03-02T10:21:20.751Z,38848
2018-03-02T10:22:22.415Z,36352
2018-03-02T10:23:24.085Z,40000
2018-03-02T10:24:25.731Z,37408
2018-03-02T10:25:27.392Z,43872
2018-03-02T10:26:29.058Z,72000
2018-03-02T10:27:30.740Z,66560
2018-03-02T10:28:32.392Z,46176
2018-03-02T10:29:34.048Z,48288
2018-03-02T10:30:35.710Z,51328
2018-03-02T10:31:37.387Z,54272
2018-03-02T10:32:39.050Z,69408
2018-03-02T10:33:40.716Z,49504
2018-03-02T10:34:42.389Z,50592
2018-03-02T10:35:44.093Z,53760
2018-03-02T10:36:45.745Z,53984
2018-03-02T10:37:47.411Z,58752
2018-03-02T10:38:49.064Z,56736
2018-03-02T10:39:50.732Z,46368
2018-03-02T10:40:52.398Z,50336
2018-03-02T10:41:54.065Z,51968
2018-03-02T10:42:55.725Z,53440
2018-03-02T10:43:57.395Z,81248
2018-03-02T10:44:59.052Z,64064
2018-03-02T10:46:00.711Z,60064
2018-03-02T10:47:02.381Z,54240
2018-03-02T10:48:04.044Z,52544
2018-03-02T10:49:05.700Z,51168
2018-03-02T10:50:07.368Z,51328
2018-03-02T10:51:09.029Z,54624
2018-03-02T10:52:10.688Z,71936
2018-03-02T10:53:12.353Z,68128
2018-03-02T10:54:14.026Z,65440
2018-03-02T10:55:15.677Z,77600
2018-03-02T11:01:46.442Z,85920
2018-03-02T11:02:48.090Z,89216
2018-03-02T11:03:49.741Z,88960
2018-03-02T11:04:51.411Z,86816
2018-03-02T11:05:53.072Z,83136
2018-03-02T11:06:54.738Z,79872
2018-03-02T11:07:56.404Z,82464
2018-03-02T11:08:58.063Z,79552
2018-03-02T11:09:59.717Z,74464
2018-03-02T11:11:01.383Z,78720
2018-03-02T11:12:03.041Z,79584
2018-03-02T11:13:04.721Z,78880
2018-03-02T11:14:06.387Z,75712
2018-03-02T11:15:08.044Z,73984
2018-03-02T11:16:09.722Z,74464
2018-03-02T11:17:11.379Z,71936
2018-03-02T11:18:13.038Z,71520
2018-03-02T11:19:14.697Z,70656
2018-03-02T11:20:16.368Z,66112
2018-03-02T11:21:18.016Z,68352
2018-03-02T11:22:19.677Z,65120
2018-03-02T11:23:21.339Z,57920
2018-03-02T11:24:23.019Z,65056
2018-03-02T11:25:24.674Z,53856
2018-03-02T11:26:26.337Z,56576
2018-03-02T11:27:28.000Z,55904
2018-03-02T11:28:29.662Z,59264
2018-03-02T11:29:31.340Z,63360
2018-03-02T11:30:33.002Z,60416
2018-03-02T11:31:34.665Z,62944
2018-03-02T11:32:36.322Z,64032
2018-03-02T11:33:37.990Z,69152
2018-03-02T11:34:39.681Z,66752
2018-03-02T11:35:41.344Z,63392
2018-03-02T11:36:43.001Z,71040
2018-03-02T11:37:44.659Z,73504
2018-03-02T11:38:46.314Z,72352
2018-03-02T11:39:47.976Z,66720
2018-03-02T11:40:49.643Z,63936
2018-03-02T11:41:51.315Z,66080
2018-03-02T11:42:52.978Z,69696
2018-03-02T11:43:54.645Z,51008
2018-03-02T11:44:56.304Z,47360
2018-03-02T11:45:57.971Z,42400
2018-03-02T11:46:59.642Z,46464
2018-03-02T11:48:01.299Z,46624
2018-03-02T11:49:02.966Z,47296
2018-03-02T11:50:04.629Z,60032
2018-03-02T11:51:06.291Z,63712
2018-03-02T11:52:07.970Z,53664
2018-03-02T11:53:09.631Z,56000
2018-03-02T11:54:11.292Z,59456
2018-03-02T11:55:12.958Z,53568
2018-03-02T11:56:14.622Z,37056
2018-03-02T11:57:16.293Z,44608
2018-03-02T11:58:17.961Z,33120
2018-03-02T11:59:20.576Z,30112
2018-03-02T12:00:22.238Z,27168
2018-03-02T12:01:23.916Z,25088
2018-03-02T12:02:25.573Z,29568
2018-03-02T12:03:27.359Z,28672
2018-03-02T12:04:28.979Z,33472
2018-03-02T12:05:30.639Z,39584
2018-03-02T12:06:32.949Z,38432
2018-03-02T12:07:34.671Z,34944
2018-03-02T12:08:36.328Z,29408
2018-03-02T12:09:38.213Z,31296
2018-03-02T12:10:39.916Z,27840
2018-03-02T12:11:41.529Z,25536
2018-03-02T12:12:43.202Z,23264
2018-03-02T12:13:44.862Z,22784
2018-03-02T12:14:46.530Z,26560
2018-03-02T12:15:48.193Z,31264
2018-03-02T12:16:49.913Z,34560
2018-03-02T12:17:51.545Z,34208
2018-03-02T12:18:53.621Z,35552
2018-03-02T12:19:55.227Z,34304
2018-03-02T12:20:56.894Z,29152
2018-03-02T12:21:58.562Z,28192
2018-03-02T12:23:00.236Z,26304
2018-03-02T12:24:01.895Z,24640
2018-03-02T12:25:03.555Z,24192
2018-03-02T12:26:05.350Z,24576
2018-03-02T12:27:07.008Z,26176
2018-03-02T12:28:08.670Z,27840
2018-03-02T12:29:10.327Z,28704
2018-03-02T12:30:11.998Z,29440
2018-03-02T12:31:13.659Z,26784
2018-03-02T12:32:15.321Z,27040
2018-03-02T12:33:16.999Z,27072
2018-03-02T12:34:18.661Z,26144
2018-03-02T12:35:20.335Z,25760
2018-03-02T12:36:21.978Z,25376
2018-03-02T12:37:23.628Z,25664
2018-03-02T12:38:25.300Z,26560
2018-03-02T12:39:26.960Z,28032
2018-03-02T12:40:28.621Z,28064
2018-03-02T12:41:30.292Z,27456
2018-03-02T12:42:31.957Z,27584
2018-03-02T12:43:33.625Z,27296
2018-03-02T12:44:35.343Z,26560
2018-03-02T12:45:36.958Z,26816
2018-03-02T12:46:38.624Z,27616
2018-03-02T12:47:40.277Z,27552
2018-03-02T12:48:41.943Z,28160
2018-03-02T12:49:43.613Z,28160
2018-03-02T12:50:45.267Z,28576
2018-03-02T12:51:46.940Z,28544
2018-03-02T12:52:48.606Z,29056
2018-03-02T12:53:50.286Z,29280
2018-03-02T12:54:51.950Z,28992
2018-03-02T12:55:53.641Z,28832
2018-03-02T12:56:55.357Z,28928
2018-03-02T12:57:57.015Z,28832
2018-03-02T12:59:00.256Z,28480
2018-03-02T13:00:02.735Z,28192
2018-03-02T13:01:05.336Z,27648
2018-03-02T13:02:06.913Z,27424
2018-03-02T13:03:09.052Z,27424
2018-03-02T13:04:10.725Z,27392
2018-03-02T13:05:12.387Z,27264
2018-03-02T13:06:14.537Z,27008
2018-03-02T13:07:17.285Z,26848
2018-03-02T13:08:18.855Z,26592
2018-03-02T13:09:20.857Z,26304
2018-03-02T13:10:23.456Z,26144
2018-03-02T13:11:25.143Z,25920
2018-03-02T13:12:26.821Z,25856
2018-03-02T13:13:28.488Z,25376
2018-03-02T13:14:30.172Z,25088
2018-03-02T13:15:31.847Z,24256
2018-03-02T13:16:33.507Z,23904
2018-03-02T13:17:35.183Z,24128
2018-03-02T13:18:36.859Z,24320
2018-03-02T13:19:39.455Z,24064
2018-03-02T13:20:41.129Z,23744
2018-03-02T13:21:42.799Z,23328
2018-03-02T13:22:44.482Z,23008
2018-03-02T13:23:48.012Z,22688
2018-03-02T13:24:49.577Z,22528
2018-03-02T13:25:51.234Z,21824
2018-03-02T13:26:53.439Z,21376
2018-03-02T13:27:54.917Z,20640
2018-03-02T13:28:56.576Z,20832
2018-03-02T13:29:59.414Z,20896
2018-03-02T13:31:01.097Z,21056
2018-03-02T13:32:03.552Z,20960
2018-03-02T13:33:07.893Z,21344
2018-03-02T13:34:11.027Z,21088
2018-03-02T13:35:13.533Z,21856
2018-03-02T13:36:15.894Z,21760
2018-03-02T13:37:17.673Z,21792
2018-03-02T13:38:19.415Z,23104
2018-03-02T13:39:21.114Z,22720
2018-03-02T13:40:22.947Z,21536
2018-03-02T13:41:24.604Z,20544
2018-03-02T13:42:26.298Z,19840
2018-03-02T13:43:27.984Z,18784
2018-03-02T13:44:29.659Z,17764
2018-03-02T13:45:31.386Z,17516
2018-03-02T13:46:34.051Z,16732
2018-03-02T13:47:37.058Z,16384
2018-03-02T13:48:41.088Z,16468
2018-03-02T13:49:43.000Z,15504
2018-03-02T13:50:45.254Z,16324
2018-03-02T13:51:47.120Z,15608
2018-03-02T13:52:48.956Z,15984
2018-03-02T13:53:52.446Z,15712
2018-03-02T13:54:54.147Z,15648
2018-03-02T13:55:56.798Z,15868
2018-03-02T13:56:58.554Z,15748
2018-03-02T13:58:00.695Z,15740
2018-03-02T13:59:02.374Z,15828
2018-03-02T14:00:04.040Z,15684
2018-03-02T14:01:06.426Z,15552
2018-03-02T14:02:08.095Z,16444
2018-03-02T14:03:09.748Z,15776
2018-03-02T14:04:11.414Z,16116
2018-03-02T14:05:13.073Z,15876
2018-03-02T14:06:14.734Z,15956
2018-03-02T14:07:16.382Z,15880
2018-03-02T14:08:18.056Z,16124
2018-03-02T14:09:19.714Z,16028
2018-03-02T14:10:21.376Z,16004
2018-03-02T14:11:23.139Z,16036
2018-03-02T14:12:24.640Z,16368
2018-03-02T14:13:26.436Z,16628
2018-03-02T14:14:28.034Z,16680
2018-03-02T14:15:29.699Z,17080
2018-03-02T14:16:31.525Z,17188
2018-03-02T14:17:33.187Z,17048
2018-03-02T14:18:34.855Z,16912
2018-03-02T14:19:36.580Z,16792